createdAt,value
2023-04-22T00:00:27.795Z,101844.84
2023-04-22T00:02:57.262Z,101846.91
2023-04-22T00:05:25.647Z,101848.97
2023-04-22T00:07:54.006Z,101838.03
2023-04-22T00:10:22.364Z,101842.47
2023-04-22T00:12:50.619Z,101834.88
2023-04-22T00:15:22.446Z,101825.81
2023-04-22T00:17:50.984Z,101839.03
2023-04-22T00:20:24.362Z,101825.06
2023-04-22T00:22:52.750Z,101829.97
2023-04-22T00:25:21.279Z,101826.22
2023-04-22T00:27:49.702Z,101830.34
2023-04-22T00:30:17.975Z,101832.72
2023-04-22T00:32:46.279Z,101831.22
2023-04-22T00:35:14.562Z,101834.88
2023-04-22T00:37:42.946Z,101838.75
2023-04-22T00:40:12.125Z,101838.03
2023-04-22T00:42:40.730Z,101849.41
2023-04-22T00:45:13.145Z,101841.69
2023-04-22T00:47:42.713Z,101837.47
2023-04-22T00:50:11.450Z,101847.84
2023-04-22T00:52:39.717Z,101841.00
2023-04-22T00:55:08.460Z,101840.88
2023-04-22T00:57:37.217Z,101840.09
2023-04-22T01:00:07.105Z,101840.41
2023-04-22T01:02:35.526Z,101839.66
2023-04-22T01:05:04.899Z,101836.22
2023-04-22T01:07:33.385Z,101836.97
2023-04-22T01:10:02.320Z,101829.47
2023-04-22T01:12:30.583Z,101828.88
2023-04-22T01:14:58.985Z,101826.38
2023-04-22T01:17:27.322Z,101832.16
2023-04-22T01:19:56.583Z,101830.94
2023-04-22T01:22:31.608Z,101834.75
2023-04-22T01:25:00.217Z,101833.94
2023-04-22T01:27:28.612Z,101830.84
2023-04-22T01:29:57.111Z,101826.66
2023-04-22T01:32:25.940Z,101827.72
2023-04-22T01:34:54.350Z,101832.59
2023-04-22T01:37:22.888Z,101827.84
2023-04-22T01:39:51.545Z,101829.31
2023-04-22T01:42:20.246Z,101820.78
2023-04-22T01:44:48.809Z,101826.44
2023-04-22T01:47:17.350Z,101830.97
2023-04-22T01:49:45.979Z,101829.13
2023-04-22T01:52:14.626Z,101819.66
2023-04-22T01:54:43.140Z,101821.75
2023-04-22T01:57:14.820Z,101829.16
2023-04-22T01:59:43.172Z,101816.00
2023-04-22T02:02:11.624Z,101826.63
2023-04-22T02:04:40.069Z,101818.84
2023-04-22T02:07:08.410Z,101817.38
2023-04-22T02:09:37.109Z,101816.31
2023-04-22T02:12:05.854Z,101812.44
2023-04-22T02:14:34.189Z,101818.25
2023-04-22T02:17:05.733Z,101817.63
2023-04-22T02:19:34.246Z,101814.47
2023-04-22T02:22:02.793Z,101808.31
2023-04-22T02:24:31.078Z,101803.94
2023-04-22T02:26:59.353Z,101800.38
2023-04-22T02:29:28.187Z,101807.53
2023-04-22T02:31:56.463Z,101805.75
2023-04-22T02:34:24.737Z,101811.31
2023-04-22T02:36:53.045Z,101803.56
2023-04-22T02:39:21.589Z,101806.44
2023-04-22T02:41:49.846Z,101805.81
2023-04-22T02:44:18.127Z,101801.53
2023-04-22T02:46:46.450Z,101803.59
2023-04-22T02:49:14.767Z,101796.97
2023-04-22T02:51:43.038Z,101807.25
2023-04-22T02:54:11.378Z,101811.88
2023-04-22T02:56:39.694Z,101814.97
2023-04-22T02:59:08.024Z,101812.41
2023-04-22T03:01:36.357Z,101799.06
2023-04-22T03:04:04.962Z,101803.88
2023-04-22T03:06:33.665Z,101804.03
2023-04-22T03:09:01.997Z,101813.97
2023-04-22T03:11:30.308Z,101814.94
2023-04-22T03:13:58.612Z,101808.94
2023-04-22T03:16:27.021Z,101811.75
2023-04-22T03:18:55.391Z,101813.06
2023-04-22T03:21:23.715Z,101804.38
2023-04-22T03:23:51.952Z,101812.66
2023-04-22T03:26:20.294Z,101808.38
2023-04-22T03:28:48.540Z,101805.03
2023-04-22T03:31:17.259Z,101807.09
2023-04-22T03:33:45.932Z,101805.56
2023-04-22T03:36:14.181Z,101810.38
2023-04-22T03:38:42.542Z,101806.19
2023-04-22T03:41:11.009Z,101809.19
2023-04-22T03:43:39.250Z,101805.25
2023-04-22T03:46:09.046Z,101805.56
2023-04-22T03:48:37.613Z,101806.72
2023-04-22T03:51:05.925Z,101809.53
2023-04-22T03:53:34.190Z,101806.94
2023-04-22T03:56:02.424Z,101809.81
2023-04-22T03:58:30.879Z,101812.59
2023-04-22T04:00:59.189Z,101822.59
2023-04-22T04:03:30.177Z,101815.69
2023-04-22T04:05:59.404Z,101820.41
2023-04-22T04:08:27.814Z,101815.97
2023-04-22T04:10:56.209Z,101825.03
2023-04-22T04:13:24.517Z,101817.19
2023-04-22T04:15:53.421Z,101820.16
2023-04-22T04:18:22.454Z,101820.41
2023-04-22T04:20:50.698Z,101829.66
2023-04-22T04:23:19.248Z,101829.06
2023-04-22T04:25:48.667Z,101831.09
2023-04-22T04:28:18.638Z,101829.56
2023-04-22T04:30:47.542Z,101832.38
2023-04-22T04:33:18.166Z,101828.34
2023-04-22T04:35:46.858Z,101829.66
2023-04-22T04:38:15.369Z,101833.75
2023-04-22T04:40:44.491Z,101831.38
2023-04-22T04:43:13.831Z,101830.88
2023-04-22T04:45:48.800Z,101825.03
2023-04-22T04:48:17.864Z,101824.38
2023-04-22T04:50:46.578Z,101823.59
2023-04-22T04:53:14.812Z,101828.25
2023-04-22T04:55:43.118Z,101830.19
2023-04-22T04:58:11.580Z,101831.22
2023-04-22T05:00:39.884Z,101829.63
2023-04-22T05:03:08.479Z,101826.34
2023-04-22T05:05:37.147Z,101829.22
2023-04-22T05:08:05.783Z,101830.31
2023-04-22T05:10:34.138Z,101830.34
2023-04-22T05:13:04.100Z,101820.50
2023-04-22T05:15:32.944Z,101819.81
2023-04-22T05:18:01.392Z,101822.63
2023-04-22T05:20:29.784Z,101818.25
2023-04-22T05:22:58.071Z,101821.94
2023-04-22T05:25:26.420Z,101820.31
2023-04-22T05:27:54.721Z,101815.00
2023-04-22T05:30:23.100Z,101816.78
2023-04-22T05:32:51.494Z,101816.09
2023-04-22T05:35:19.986Z,101811.75
2023-04-22T05:37:48.527Z,101808.38
2023-04-22T05:40:17.027Z,101807.63
2023-04-22T05:42:45.392Z,101812.25
2023-04-22T05:45:13.780Z,101817.94
2023-04-22T05:47:42.246Z,101811.94
2023-04-22T05:50:10.781Z,101812.16
2023-04-22T05:52:39.054Z,101809.66
2023-04-22T05:55:08.299Z,101813.38
2023-04-22T05:57:36.629Z,101811.06
2023-04-22T06:00:06.220Z,101808.44
2023-04-22T06:02:34.709Z,101802.41
2023-04-22T06:05:03.563Z,101798.06
2023-04-22T06:07:32.043Z,101804.38
2023-04-22T06:10:05.144Z,101815.03
2023-04-22T06:12:35.652Z,101811.53
2023-04-22T06:15:04.080Z,101806.31
2023-04-22T06:17:32.430Z,101799.19
2023-04-22T06:20:00.833Z,101797.38
2023-04-22T06:22:29.058Z,101802.00
2023-04-22T06:24:57.353Z,101799.34
2023-04-22T06:27:25.643Z,101802.91
2023-04-22T06:29:53.917Z,101800.28
2023-04-22T06:32:22.379Z,101797.69
2023-04-22T06:34:50.638Z,101795.97
2023-04-22T06:37:19.350Z,101789.91
2023-04-22T06:39:47.974Z,101788.34
2023-04-22T06:42:16.263Z,101784.84
2023-04-22T06:44:44.550Z,101786.69
2023-04-22T06:47:12.822Z,101792.25
2023-04-22T06:49:41.468Z,101788.84
2023-04-22T06:52:10.258Z,101788.13
2023-04-22T06:54:39.350Z,101787.44
2023-04-22T06:57:08.843Z,101780.47
2023-04-22T06:59:37.349Z,101784.13
2023-04-22T07:02:06.910Z,101779.75
2023-04-22T07:04:35.368Z,101785.13
2023-04-22T07:07:04.484Z,101779.94
2023-04-22T07:09:32.854Z,101776.63
2023-04-22T07:12:02.128Z,101772.22
2023-04-22T07:14:30.445Z,101773.22
2023-04-22T07:16:58.861Z,101768.94
2023-04-22T07:19:27.455Z,101772.59
2023-04-22T07:21:55.900Z,101778.06
2023-04-22T07:24:24.501Z,101768.38
2023-04-22T07:26:52.886Z,101762.25
2023-04-22T07:29:21.311Z,101761.50
2023-04-22T07:31:49.688Z,101766.91
2023-04-22T07:34:19.264Z,101762.53
2023-04-22T07:36:48.033Z,101760.78
2023-04-22T07:39:16.825Z,101752.78
2023-04-22T07:41:45.066Z,101753.72
2023-04-22T07:44:17.348Z,101747.56
2023-04-22T07:46:45.933Z,101744.13
2023-04-22T07:49:14.951Z,101750.53
2023-04-22T07:51:43.446Z,101754.16
2023-04-22T07:54:11.924Z,101748.88
2023-04-22T07:56:40.302Z,101747.13
2023-04-22T07:59:08.656Z,101741.88
2023-04-22T08:01:36.956Z,101741.88
2023-04-22T08:04:05.512Z,101747.22
2023-04-22T08:06:33.992Z,101737.53
2023-04-22T08:09:02.267Z,101737.53
2023-04-22T08:11:31.305Z,101741.09
2023-04-22T08:13:59.794Z,101741.16
2023-04-22T08:16:28.188Z,101732.41
2023-04-22T08:18:58.418Z,101733.41
2023-04-22T08:21:28.414Z,101736.16
2023-04-22T08:23:56.930Z,101729.22
2023-04-22T08:26:25.326Z,101732.94
2023-04-22T08:28:53.589Z,101725.97
2023-04-22T08:31:21.825Z,101732.16
2023-04-22T08:33:51.562Z,101728.53
2023-04-22T08:36:22.637Z,101726.75
2023-04-22T08:38:51.133Z,101724.97
2023-04-22T08:41:20.320Z,101716.03
2023-04-22T08:43:49.108Z,101708.09
2023-04-22T08:46:20.927Z,101706.50
2023-04-22T08:48:51.029Z,101709.41
2023-04-22T08:51:19.578Z,101707.75
2023-04-22T08:53:48.601Z,101703.38
2023-04-22T08:56:17.469Z,101702.50
2023-04-22T08:58:47.524Z,101698.09
2023-04-22T09:01:16.451Z,101688.38
2023-04-22T09:03:45.510Z,101684.84
2023-04-22T09:06:13.982Z,101684.97
2023-04-22T09:08:42.257Z,101687.66
2023-04-22T09:11:11.356Z,101684.13
2023-04-22T09:13:39.669Z,101686.78
2023-04-22T09:16:08.238Z,101679.72
2023-04-22T09:18:49.002Z,101675.31
2023-04-22T09:21:17.516Z,101681.63
2023-04-22T09:23:51.344Z,101675.50
2023-04-22T09:26:27.038Z,101669.31
2023-04-22T09:28:59.210Z,101659.63
2023-04-22T09:31:30.581Z,101659.66
2023-04-22T09:34:01.665Z,101654.38
2023-04-22T09:36:30.988Z,101655.28
2023-04-22T09:39:01.409Z,101645.53
2023-04-22T09:41:35.461Z,101650.06
2023-04-22T09:44:05.323Z,101647.44
2023-04-22T09:46:34.839Z,101638.50
2023-04-22T09:49:03.643Z,101641.13
2023-04-22T09:51:32.920Z,101632.22
2023-04-22T09:54:07.331Z,101624.16
2023-04-22T09:56:43.251Z,101628.56
2023-04-22T09:59:12.021Z,101631.28
2023-04-22T10:01:44.041Z,101628.63
2023-04-22T10:04:14.536Z,101634.00
2023-04-22T10:06:43.784Z,101628.78
2023-04-22T10:09:13.179Z,101628.91
2023-04-22T10:11:42.385Z,101632.50
2023-04-22T10:14:12.130Z,101617.44
2023-04-22T10:16:42.009Z,101613.13
2023-04-22T10:19:15.685Z,101614.97
2023-04-22T10:21:47.143Z,101614.13
2023-04-22T10:24:19.650Z,101615.91
2023-04-22T10:26:58.933Z,101616.84
2023-04-22T10:29:29.077Z,101610.78
2023-04-22T10:32:27.967Z,101609.94
2023-04-22T10:35:10.923Z,101606.41
2023-04-22T10:37:43.324Z,101603.00
2023-04-22T10:40:21.059Z,101599.56
2023-04-22T10:42:52.731Z,101603.13
2023-04-22T10:45:27.329Z,101611.09
2023-04-22T10:47:55.224Z,101605.03
2023-04-22T10:50:29.439Z,101614.75
2023-04-22T10:53:00.042Z,101613.88
2023-04-22T10:55:52.583Z,101614.00
2023-04-22T10:58:26.322Z,101609.72
2023-04-22T11:01:00.783Z,101616.84
2023-04-22T11:03:31.837Z,101622.25
2023-04-22T11:06:17.165Z,101619.63
2023-04-22T11:08:50.278Z,101618.81
2023-04-22T11:11:20.392Z,101616.22
2023-04-22T11:13:51.743Z,101614.56
2023-04-22T11:16:23.391Z,101610.09
2023-04-22T11:18:51.930Z,101610.16
2023-04-22T11:21:21.759Z,101607.56
2023-04-22T11:23:54.001Z,101606.81
2023-04-22T11:26:36.176Z,101607.69
2023-04-22T11:29:04.711Z,101605.16
2023-04-22T11:31:33.197Z,101600.78
2023-04-22T11:34:01.561Z,101600.91
2023-04-22T11:36:30.007Z,101593.84
2023-04-22T11:38:58.500Z,101595.66
2023-04-22T11:41:26.888Z,101590.34
2023-04-22T11:43:55.752Z,101589.47
2023-04-22T11:46:32.005Z,101585.88
2023-04-22T11:49:16.660Z,101585.06
2023-04-22T11:51:58.023Z,101586.84
2023-04-22T11:54:33.984Z,101571.81
2023-04-22T11:57:07.630Z,101585.13
2023-04-22T11:59:36.796Z,101582.59
2023-04-22T12:02:09.088Z,101570.38
2023-04-22T12:04:42.079Z,101578.44
2023-04-22T12:07:10.576Z,101572.28
2023-04-22T12:09:40.598Z,101573.22
2023-04-22T12:12:09.062Z,101559.94
2023-04-22T12:14:38.189Z,101564.44
2023-04-22T12:17:09.883Z,101560.91
2023-04-22T12:19:39.302Z,101556.50
2023-04-22T12:22:07.829Z,101558.41
2023-04-22T12:24:36.461Z,101561.91
2023-04-22T12:27:05.350Z,101553.03
2023-04-22T12:29:35.175Z,101553.97
2023-04-22T12:32:03.483Z,101550.53
2023-04-22T12:34:31.951Z,101554.06
2023-04-22T12:37:00.864Z,101542.56
2023-04-22T12:39:29.120Z,101535.44
2023-04-22T12:41:58.635Z,101539.03
2023-04-22T12:44:26.989Z,101539.03
2023-04-22T12:46:55.238Z,101537.28
2023-04-22T12:49:23.521Z,101535.66
2023-04-22T12:51:54.910Z,101535.66
2023-04-22T12:54:23.586Z,101534.81
2023-04-22T12:56:52.490Z,101528.69
2023-04-22T12:59:21.417Z,101531.38
2023-04-22T13:01:49.675Z,101522.59
2023-04-22T13:04:21.095Z,101524.41
2023-04-22T13:06:51.460Z,101527.09
2023-04-22T13:09:20.795Z,101522.72
2023-04-22T13:11:50.230Z,101520.97
2023-04-22T13:14:18.876Z,101520.97
2023-04-22T13:16:47.553Z,101521.84
2023-04-22T13:19:16.320Z,101528.91
2023-04-22T13:21:44.662Z,101532.59
2023-04-22T13:24:13.022Z,101538.88
2023-04-22T13:26:41.335Z,101525.59
2023-04-22T13:29:14.446Z,101531.00
2023-04-22T13:31:46.128Z,101539.84
2023-04-22T13:34:15.276Z,101528.34
2023-04-22T13:36:43.738Z,101535.47
2023-04-22T13:39:12.683Z,101536.38
2023-04-22T13:41:41.006Z,101538.16
2023-04-22T13:44:09.298Z,101532.91
2023-04-22T13:46:37.557Z,101540.94
2023-04-22T13:49:06.669Z,101540.06
2023-04-22T13:51:35.078Z,101546.28
2023-04-22T13:54:03.299Z,101542.75
2023-04-22T13:56:32.013Z,101544.44
2023-04-22T13:59:00.742Z,101548.91
2023-04-22T14:01:29.096Z,101539.13
2023-04-22T14:03:57.646Z,101546.13
2023-04-22T14:06:26.118Z,101546.91
2023-04-22T14:08:54.512Z,101553.09
2023-04-22T14:11:22.871Z,101553.88
2023-04-22T14:13:51.160Z,101552.94
2023-04-22T14:16:20.724Z,101564.38
2023-04-22T14:18:49.634Z,101566.91
2023-04-22T14:21:18.085Z,101564.19
2023-04-22T14:23:47.152Z,101564.03
2023-04-22T14:26:15.397Z,101563.00
2023-04-22T14:28:44.109Z,101561.06
2023-04-22T14:31:12.839Z,101560.91
2023-04-22T14:33:41.260Z,101566.06
2023-04-22T14:36:09.794Z,101559.66
2023-04-22T14:38:38.163Z,101565.66
2023-04-22T14:41:06.950Z,101565.41
2023-04-22T14:43:35.248Z,101561.59
2023-04-22T14:46:03.743Z,101558.66
2023-04-22T14:48:33.272Z,101560.16
2023-04-22T14:51:02.008Z,101554.47
2023-04-22T14:53:30.292Z,101563.03
2023-04-22T14:55:58.593Z,101564.41
2023-04-22T14:58:27.938Z,101560.56
2023-04-22T15:00:56.296Z,101555.88
2023-04-22T15:03:24.681Z,101562.75
2023-04-22T15:05:53.377Z,101562.38
2023-04-22T15:08:21.718Z,101566.53
2023-04-22T15:10:50.041Z,101560.97
2023-04-22T15:13:18.402Z,101563.44
2023-04-22T15:15:47.565Z,101556.16
2023-04-22T15:18:15.893Z,101560.44
2023-04-22T15:20:44.205Z,101554.75
2023-04-22T15:23:12.588Z,101558.03
2023-04-22T15:25:41.064Z,101550.63
2023-04-22T15:28:11.302Z,101544.06
2023-04-22T15:30:41.514Z,101534.94
2023-04-22T15:33:09.793Z,101537.34
2023-04-22T15:35:38.143Z,101540.59
2023-04-22T15:38:07.226Z,101534.09
2023-04-22T15:40:35.509Z,101528.50
2023-04-22T15:43:03.825Z,101526.47
2023-04-22T15:45:32.208Z,101526.16
2023-04-22T15:48:00.602Z,101524.94
2023-04-22T15:50:29.171Z,101527.25
2023-04-22T15:52:57.468Z,101512.00
2023-04-22T15:55:25.891Z,101517.78
2023-04-22T15:57:54.268Z,101514.84
2023-04-22T16:00:22.615Z,101515.53
2023-04-22T16:02:56.178Z,101510.81
2023-04-22T16:05:25.571Z,101502.44
2023-04-22T16:07:54.979Z,101503.88
2023-04-22T16:10:24.107Z,101496.38
2023-04-22T16:12:52.717Z,101496.94
2023-04-22T16:15:21.048Z,101496.00
2023-04-22T16:17:49.517Z,101495.63
2023-04-22T16:20:18.012Z,101487.34
2023-04-22T16:22:46.391Z,101492.38
2023-04-22T16:25:14.850Z,101488.50
2023-04-22T16:27:43.210Z,101492.47
2023-04-22T16:30:13.224Z,101482.25
2023-04-22T16:32:43.147Z,101482.44
2023-04-22T16:35:12.291Z,101476.59
2023-04-22T16:37:40.549Z,101472.00
2023-04-22T16:40:09.776Z,101478.13
2023-04-22T16:42:38.106Z,101472.34
2023-04-22T16:45:07.505Z,101476.13
2023-04-22T16:47:35.814Z,101468.31
2023-04-22T16:50:04.662Z,101480.34
2023-04-22T16:52:33.029Z,101474.63
2023-04-22T16:55:01.689Z,101471.34
2023-04-22T16:57:30.160Z,101466.34
2023-04-22T16:59:58.558Z,101463.44
2023-04-22T17:02:27.182Z,101453.22
2023-04-22T17:04:55.601Z,101461.47
2023-04-22T17:07:23.834Z,101457.47
2023-04-22T17:09:52.074Z,101455.34
2023-04-22T17:12:20.381Z,101453.78
2023-04-22T17:14:48.675Z,101451.50
2023-04-22T17:17:16.949Z,101456.06
2023-04-22T17:19:45.291Z,101458.44
2023-04-22T17:22:13.736Z,101456.44
2023-04-22T17:24:42.321Z,101446.28
2023-04-22T17:27:10.681Z,101444.94
2023-04-22T17:29:39.245Z,101437.28
2023-04-22T17:32:08.067Z,101446.31
2023-04-22T17:34:36.479Z,101437.50
2023-04-22T17:37:04.768Z,101440.31
2023-04-22T17:39:33.205Z,101437.78
2023-04-22T17:42:02.612Z,101435.28
2023-04-22T17:44:31.972Z,101440.03
2023-04-22T17:47:00.844Z,101430.94
2023-04-22T17:49:29.201Z,101428.78
2023-04-22T17:51:57.514Z,101430.78
2023-04-22T17:54:25.973Z,101424.88
2023-04-22T17:56:54.260Z,101420.66
2023-04-22T17:59:22.507Z,101423.41
2023-04-22T18:01:50.848Z,101423.25
2023-04-22T18:04:19.115Z,101417.47
2023-04-22T18:06:47.765Z,101423.28
2023-04-22T18:09:16.105Z,101423.31
2023-04-22T18:11:44.509Z,101426.41
2023-04-22T18:14:12.826Z,101420.66
2023-04-22T18:16:41.171Z,101419.19
2023-04-22T18:19:09.498Z,101416.03
2023-04-22T18:21:41.474Z,101418.34
2023-04-22T18:24:13.536Z,101413.06
2023-04-22T18:26:42.908Z,101413.22
2023-04-22T18:29:11.331Z,101417.19
2023-04-22T18:31:39.686Z,101413.31
2023-04-22T18:34:09.001Z,101405.44
2023-04-22T18:36:37.291Z,101409.72
2023-04-22T18:39:06.440Z,101403.31
2023-04-22T18:41:34.694Z,101398.41
2023-04-22T18:44:03.140Z,101397.22
2023-04-22T18:46:31.496Z,101393.56
2023-04-22T18:48:59.803Z,101391.25
2023-04-22T18:51:28.590Z,101394.97
2023-04-22T18:53:57.229Z,101386.56
2023-04-22T18:56:25.543Z,101386.16
2023-04-22T18:58:55.320Z,101385.97
2023-04-22T19:01:23.839Z,101384.22
2023-04-22T19:03:52.542Z,101381.63
2023-04-22T19:06:20.899Z,101377.13
2023-04-22T19:08:49.705Z,101375.88
2023-04-22T19:11:18.040Z,101371.44
2023-04-22T19:13:47.468Z,101367.16
2023-04-22T19:16:15.813Z,101367.34
2023-04-22T19:18:45.937Z,101371.34
2023-04-22T19:21:14.294Z,101360.78
2023-04-22T19:23:42.949Z,101366.13
2023-04-22T19:26:11.375Z,101363.22
2023-04-22T19:28:39.690Z,101351.31
2023-04-22T19:31:08.340Z,101352.94
2023-04-22T19:33:37.134Z,101355.19
2023-04-22T19:36:05.670Z,101348.03
2023-04-22T19:38:34.078Z,101350.97
2023-04-22T19:41:02.643Z,101346.41
2023-04-22T19:43:31.043Z,101340.84
2023-04-22T19:45:59.379Z,101333.25
2023-04-22T19:48:28.066Z,101337.22
2023-04-22T19:50:56.596Z,101327.31
2023-04-22T19:53:25.072Z,101317.72
2023-04-22T19:55:53.899Z,101321.28
2023-04-22T19:58:22.932Z,101318.34
2023-04-22T20:00:51.695Z,101320.00
2023-04-22T20:03:20.572Z,101304.50
2023-04-22T20:05:51.253Z,101294.75
2023-04-22T20:08:27.008Z,101298.78
2023-04-22T20:10:56.405Z,101286.38
2023-04-22T20:13:24.898Z,101276.59
2023-04-22T20:15:53.648Z,101274.69
2023-04-22T20:18:22.026Z,101278.19
2023-04-22T20:20:50.733Z,101279.91
2023-04-22T20:23:22.382Z,101271.50
2023-04-22T20:25:51.789Z,101270.34
2023-04-22T20:28:20.877Z,101263.09
2023-04-22T20:30:49.420Z,101266.81
2023-04-22T20:33:19.255Z,101266.22
2023-04-22T20:35:50.405Z,101247.25
2023-04-22T20:38:20.270Z,101255.28
2023-04-22T20:40:49.605Z,101242.31
2023-04-22T20:43:18.047Z,101250.03
2023-04-22T20:45:46.423Z,101243.47
2023-04-22T20:48:14.696Z,101230.38
2023-04-22T20:50:43.195Z,101239.50
2023-04-22T20:53:11.580Z,101237.97
2023-04-22T20:55:39.856Z,101235.66
2023-04-22T20:58:08.198Z,101234.09
2023-04-22T21:00:36.697Z,101237.81
2023-04-22T21:03:09.704Z,101240.66
2023-04-22T21:05:42.874Z,101223.50
2023-04-22T21:08:19.093Z,101227.34
2023-04-22T21:10:47.969Z,101218.84
2023-04-22T21:13:17.021Z,101220.72
2023-04-22T21:16:02.148Z,101219.25
2023-04-22T21:18:33.256Z,101226.41
2023-04-22T21:21:04.904Z,101219.94
2023-04-22T21:23:33.743Z,101217.91
2023-04-22T21:26:04.055Z,101204.41
2023-04-22T21:28:32.616Z,101202.66
2023-04-22T21:31:01.385Z,101205.06
2023-04-22T21:33:29.637Z,101203.22
2023-04-22T21:35:58.102Z,101191.41
2023-04-22T21:38:26.746Z,101188.75
2023-04-22T21:40:55.277Z,101189.13
2023-04-22T21:43:23.708Z,101183.44
2023-04-22T21:45:52.090Z,101188.28
2023-04-22T21:48:20.309Z,101188.97
2023-04-22T21:50:48.730Z,101183.47
2023-04-22T21:53:20.275Z,101184.69
2023-04-22T21:55:48.751Z,101181.75
2023-04-22T21:58:17.360Z,101183.75
2023-04-22T22:00:46.130Z,101187.09
2023-04-22T22:03:14.646Z,101176.09
2023-04-22T22:05:43.187Z,101168.31
2023-04-22T22:08:11.545Z,101176.81
2023-04-22T22:10:39.847Z,101170.50
2023-04-22T22:13:08.838Z,101175.94
2023-04-22T22:15:37.760Z,101172.00
2023-04-22T22:18:07.589Z,101165.13
2023-04-22T22:20:37.397Z,101161.38
2023-04-22T22:23:05.711Z,101159.41
2023-04-22T22:25:33.958Z,101150.56
2023-04-22T22:28:02.284Z,101154.19
2023-04-22T22:30:30.883Z,101149.81
2023-04-22T22:32:59.221Z,101143.00
2023-04-22T22:35:27.683Z,101146.81
2023-04-22T22:37:55.984Z,101144.88
2023-04-22T22:40:24.325Z,101143.50
2023-04-22T22:42:52.622Z,101142.81
2023-04-22T22:45:20.937Z,101139.69
2023-04-22T22:47:49.404Z,101134.09
2023-04-22T22:50:17.748Z,101135.56
2023-04-22T22:52:46.107Z,101125.25
2023-04-22T22:55:14.746Z,101129.50
2023-04-22T22:57:43.118Z,101128.28
2023-04-22T23:00:12.814Z,101140.06
2023-04-22T23:02:41.359Z,101135.41
2023-04-22T23:05:10.875Z,101136.22
2023-04-22T23:07:39.479Z,101135.06
2023-04-22T23:10:08.488Z,101145.00
2023-04-22T23:12:36.740Z,101132.56
2023-04-22T23:15:05.510Z,101129.25
2023-04-22T23:17:33.801Z,101125.88
2023-04-22T23:20:02.556Z,101123.56
2023-04-22T23:22:32.956Z,101119.59
2023-04-22T23:25:01.566Z,101122.00
2023-04-22T23:27:30.651Z,101118.09
2023-04-22T23:29:59.305Z,101117.34
2023-04-22T23:32:28.349Z,101113.91
2023-04-22T23:34:59.604Z,101112.22
2023-04-22T23:37:29.811Z,101116.75
2023-04-22T23:39:58.314Z,101107.03
2023-04-22T23:42:26.784Z,101104.31
2023-04-22T23:44:55.014Z,101106.25
2023-04-22T23:47:23.272Z,101104.53
2023-04-22T23:49:52.171Z,101108.19
2023-04-22T23:52:21.203Z,101114.72
2023-04-22T23:54:50.994Z,101108.94
2023-04-22T23:57:19.647Z,101106.53
2023-04-22T23:59:48.651Z,101113.25
